createdAt,value
2023-04-16T00:01:21.186Z,3.96
2023-04-16T00:03:48.196Z,4.25
2023-04-16T00:06:15.006Z,3.73
2023-04-16T00:08:43.543Z,3.92
2023-04-16T00:11:10.461Z,4.16
2023-04-16T00:13:37.298Z,4.03
2023-04-16T00:16:04.086Z,4.31
2023-04-16T00:18:30.934Z,3.93
2023-04-16T00:20:57.558Z,4.10
2023-04-16T00:23:25.349Z,3.78
2023-04-16T00:25:53.801Z,3.82
2023-04-16T00:28:20.476Z,3.69
2023-04-16T00:30:47.121Z,3.48
2023-04-16T00:33:13.724Z,3.40
2023-04-16T00:35:40.466Z,3.53
2023-04-16T00:38:07.053Z,3.27
2023-04-16T00:40:33.632Z,3.41
2023-04-16T00:43:00.211Z,3.69
2023-04-16T00:45:27.404Z,3.82
2023-04-16T00:47:54.344Z,3.69
2023-04-16T00:50:21.788Z,3.99
2023-04-16T00:52:49.098Z,4.24
2023-04-16T00:57:45.946Z,4.45
2023-04-16T01:00:13.217Z,4.12
2023-04-16T01:02:40.221Z,4.52
2023-04-16T01:05:07.180Z,4.97
2023-04-16T01:07:33.732Z,4.70
2023-04-16T01:10:00.437Z,5.14
2023-04-16T01:12:27.001Z,5.29
2023-04-16T01:14:53.675Z,5.36
2023-04-16T01:17:20.481Z,5.23
2023-04-16T01:19:47.039Z,5.09
2023-04-16T01:22:13.674Z,5.26
2023-04-16T01:24:40.680Z,5.04
2023-04-16T01:27:07.256Z,4.79
2023-04-16T01:29:33.913Z,4.83
2023-04-16T01:32:00.667Z,5.69
2023-04-16T01:34:27.210Z,5.67
2023-04-16T01:36:53.789Z,6.02
2023-04-16T01:39:20.367Z,6.26
2023-04-16T01:41:46.929Z,5.67
2023-04-16T01:44:13.505Z,5.55
2023-04-16T01:46:40.143Z,5.52
2023-04-16T01:49:07.467Z,6.08
2023-04-16T01:51:34.283Z,6.69
2023-04-16T01:54:01.146Z,6.73
2023-04-16T01:56:27.803Z,6.96
2023-04-16T01:58:54.494Z,6.63
2023-04-16T02:01:21.400Z,6.68
2023-04-16T02:03:48.389Z,6.98
2023-04-16T02:06:15.517Z,8.07
2023-04-16T02:08:42.242Z,8.26
2023-04-16T02:11:09.054Z,8.65
2023-04-16T02:13:35.773Z,8.81
2023-04-16T02:16:02.755Z,8.70
2023-04-16T02:18:29.393Z,9.11
2023-04-16T02:20:59.904Z,10.16
2023-04-16T02:23:26.735Z,10.60
2023-04-16T02:25:53.476Z,10.88
2023-04-16T02:28:20.206Z,10.41
2023-04-16T02:30:46.872Z,10.29
2023-04-16T02:33:13.533Z,10.54
2023-04-16T02:35:40.938Z,10.24
2023-04-16T02:38:08.580Z,10.48
2023-04-16T02:40:35.895Z,10.84
2023-04-16T02:43:02.983Z,10.63
2023-04-16T02:45:31.542Z,10.38
2023-04-16T02:47:59.685Z,10.73
2023-04-16T02:50:26.348Z,10.98
2023-04-16T02:52:52.968Z,10.86
2023-04-16T02:55:19.671Z,11.63
2023-04-16T02:57:46.307Z,11.64
2023-04-16T03:00:13.232Z,12.62
2023-04-16T03:02:39.912Z,12.15
2023-04-16T03:05:06.942Z,12.35
2023-04-16T03:07:33.532Z,12.57
2023-04-16T03:10:00.128Z,12.75
2023-04-16T03:12:26.715Z,13.07
2023-04-16T03:14:53.396Z,13.17
2023-04-16T03:17:20.049Z,13.73
2023-04-16T03:19:46.725Z,14.57
2023-04-16T03:22:13.401Z,14.45
2023-04-16T03:24:40.677Z,13.81
2023-04-16T03:27:07.285Z,13.61
2023-04-16T03:29:36.860Z,13.64
2023-04-16T03:32:03.458Z,13.12
2023-04-16T03:34:30.043Z,12.54
2023-04-16T03:36:56.725Z,12.47
2023-04-16T03:39:23.311Z,11.94
2023-04-16T03:41:49.863Z,12.39
2023-04-16T03:44:16.432Z,12.69
2023-04-16T03:46:43.123Z,12.64
2023-04-16T03:49:09.932Z,12.50
2023-04-16T03:51:36.595Z,13.27
2023-04-16T03:54:03.141Z,13.41
2023-04-16T03:56:29.711Z,13.84
2023-04-16T03:58:56.308Z,13.43
2023-04-16T04:01:22.978Z,14.37
2023-04-16T04:03:49.891Z,13.94
2023-04-16T04:06:16.687Z,14.20
2023-04-16T04:08:43.944Z,14.44
2023-04-16T04:11:10.490Z,15.23
2023-04-16T04:13:37.091Z,15.00
2023-04-16T04:16:04.679Z,14.96
2023-04-16T04:18:31.278Z,15.01
2023-04-16T04:20:57.977Z,14.91
2023-04-16T04:23:24.537Z,15.50
2023-04-16T04:25:51.141Z,14.89
2023-04-16T04:28:17.728Z,14.49
2023-04-16T04:30:44.304Z,15.07
2023-04-16T04:33:11.026Z,14.77
2023-04-16T04:35:37.616Z,14.51
2023-04-16T04:38:05.088Z,14.64
2023-04-16T04:40:31.701Z,14.42
2023-04-16T04:42:58.342Z,14.06
2023-04-16T04:45:28.993Z,14.39
2023-04-16T04:47:56.971Z,14.14
2023-04-16T04:50:23.580Z,13.61
2023-04-16T04:52:50.128Z,13.79
2023-04-16T04:55:16.684Z,14.48
2023-04-16T04:57:43.330Z,13.88
2023-04-16T05:00:10.352Z,14.58
2023-04-16T05:02:37.029Z,14.24
2023-04-16T05:05:04.768Z,14.69
2023-04-16T05:07:32.224Z,14.71
2023-04-16T05:09:58.932Z,14.55
2023-04-16T05:12:25.511Z,14.57
2023-04-16T05:14:52.124Z,14.57
2023-04-16T05:17:18.714Z,15.32
2023-04-16T05:19:45.349Z,14.20
2023-04-16T05:22:12.550Z,13.96
2023-04-16T05:24:39.187Z,14.26
2023-04-16T05:27:06.469Z,14.95
2023-04-16T05:29:33.105Z,14.81
2023-04-16T05:31:59.735Z,15.28
2023-04-16T05:34:26.468Z,15.15
2023-04-16T05:36:53.102Z,15.15
2023-04-16T05:39:20.256Z,15.56
2023-04-16T05:41:46.934Z,15.95
2023-04-16T05:44:13.574Z,15.84
2023-04-16T05:46:40.240Z,15.57
2023-04-16T05:49:06.855Z,15.83
2023-04-16T05:51:33.538Z,15.68
2023-04-16T05:54:00.292Z,15.94
2023-04-16T05:56:27.103Z,15.78
2023-04-16T05:58:53.705Z,15.83
2023-04-16T06:01:21.649Z,15.16
2023-04-16T06:03:49.512Z,15.51
2023-04-16T06:06:16.218Z,14.68
2023-04-16T06:08:42.764Z,14.80
2023-04-16T06:11:10.048Z,15.65
2023-04-16T06:13:37.318Z,15.65
2023-04-16T06:16:04.055Z,16.22
2023-04-16T06:18:30.761Z,16.25
2023-04-16T06:20:58.913Z,16.63
2023-04-16T06:23:25.653Z,17.17
2023-04-16T06:25:52.281Z,17.17
2023-04-16T06:28:18.900Z,16.94
2023-04-16T06:30:47.086Z,17.63
2023-04-16T06:33:13.889Z,17.85
2023-04-16T06:35:40.865Z,17.49
2023-04-16T06:38:07.478Z,18.24
2023-04-16T06:40:34.396Z,18.48
2023-04-16T06:43:01.139Z,18.12
2023-04-16T06:45:27.743Z,19.39
2023-04-16T06:47:54.352Z,18.95
2023-04-16T06:50:22.195Z,18.50
2023-04-16T06:52:48.902Z,19.05
2023-04-16T06:55:15.556Z,18.05
2023-04-16T06:57:42.114Z,18.31
2023-04-16T07:00:09.181Z,18.09
2023-04-16T07:02:35.989Z,18.13
2023-04-16T07:05:03.481Z,19.18
2023-04-16T07:07:30.987Z,18.77
2023-04-16T07:09:57.559Z,19.30
2023-04-16T07:12:24.173Z,19.42
2023-04-16T07:14:51.609Z,21.65
2023-04-16T07:17:18.285Z,22.38
2023-04-16T07:19:44.876Z,22.41
2023-04-16T07:22:11.434Z,22.41
2023-04-16T07:24:38.081Z,21.52
2023-04-16T07:27:04.863Z,20.05
2023-04-16T07:29:31.416Z,19.35
2023-04-16T07:31:58.126Z,18.57
2023-04-16T07:34:24.778Z,18.02
2023-04-16T07:36:51.370Z,17.47
2023-04-16T07:39:18.027Z,16.64
2023-04-16T07:41:45.806Z,16.74
2023-04-16T07:44:12.412Z,18.01
2023-04-16T07:46:46.381Z,17.95
2023-04-16T07:49:14.345Z,17.52
2023-04-16T07:51:41.482Z,16.82
2023-04-16T07:54:08.150Z,16.92
2023-04-16T07:56:34.843Z,16.71
2023-04-16T07:59:14.420Z,16.97
2023-04-16T08:01:48.319Z,15.75
2023-04-16T08:04:17.460Z,15.45
2023-04-16T08:06:44.183Z,15.32
2023-04-16T08:09:11.198Z,15.31
2023-04-16T08:11:37.925Z,15.37
2023-04-16T08:14:04.546Z,14.04
2023-04-16T08:16:31.217Z,13.37
2023-04-16T08:18:57.931Z,13.07
2023-04-16T08:21:24.626Z,13.30
2023-04-16T08:23:51.369Z,12.64
2023-04-16T08:26:17.925Z,12.79
2023-04-16T08:28:44.525Z,12.64
2023-04-16T08:31:11.366Z,12.01
2023-04-16T08:33:38.053Z,12.18
2023-04-16T08:36:04.938Z,11.60
2023-04-16T08:38:31.529Z,11.90
2023-04-16T08:41:03.773Z,11.63
2023-04-16T08:43:34.341Z,11.45
2023-04-16T08:46:01.729Z,10.94
2023-04-16T08:48:33.391Z,10.69
2023-04-16T08:51:01.426Z,10.37
2023-04-16T08:53:51.418Z,9.97
2023-04-16T08:56:21.436Z,9.75
2023-04-16T08:58:49.925Z,10.10
2023-04-16T09:01:18.388Z,10.52
2023-04-16T09:03:48.278Z,10.04
2023-04-16T09:06:16.455Z,10.42
2023-04-16T09:08:48.803Z,9.81
2023-04-16T09:11:18.150Z,9.32
2023-04-16T09:13:46.968Z,9.30
2023-04-16T09:16:14.953Z,9.41
2023-04-16T09:18:41.863Z,9.53
2023-04-16T09:21:11.284Z,9.25
2023-04-16T09:23:38.823Z,9.11
2023-04-16T09:26:06.225Z,9.18
2023-04-16T09:28:39.849Z,8.79
2023-04-16T09:31:18.294Z,8.98
2023-04-16T09:34:00.908Z,9.50
2023-04-16T09:36:28.380Z,9.64
2023-04-16T09:38:57.523Z,9.87
2023-04-16T09:41:27.456Z,10.47
2023-04-16T09:43:57.314Z,10.88
2023-04-16T09:46:31.899Z,10.33
2023-04-16T09:48:58.634Z,10.24
2023-04-16T09:51:26.910Z,10.44
2023-04-16T09:53:56.258Z,10.61
2023-04-16T09:56:25.873Z,10.79
2023-04-16T09:58:58.090Z,11.58
2023-04-16T10:01:25.454Z,11.47
2023-04-16T10:03:55.698Z,11.66
2023-04-16T10:06:25.440Z,11.63
2023-04-16T10:08:56.839Z,11.38
2023-04-16T10:11:23.933Z,11.36
2023-04-16T10:13:51.426Z,11.70
2023-04-16T10:16:18.794Z,11.43
2023-04-16T10:18:47.234Z,12.73
2023-04-16T10:21:15.391Z,14.90
2023-04-16T10:23:43.658Z,15.48
2023-04-16T10:26:10.631Z,15.37
2023-04-16T10:28:37.318Z,15.86
2023-04-16T10:31:07.513Z,15.14
2023-04-16T10:33:41.278Z,14.82
2023-04-16T10:36:11.108Z,15.20
2023-04-16T10:39:00.785Z,15.19
2023-04-16T10:41:27.629Z,14.95
2023-04-16T10:44:06.062Z,14.15
2023-04-16T10:46:43.961Z,14.31
2023-04-16T10:49:22.631Z,14.49
2023-04-16T10:51:58.012Z,14.64
2023-04-16T10:54:30.189Z,15.00
2023-04-16T10:56:59.155Z,15.41
2023-04-16T10:59:31.713Z,16.49
2023-04-16T11:02:01.818Z,16.78
2023-04-16T11:04:39.615Z,16.84
2023-04-16T11:07:16.298Z,16.66
2023-04-16T11:10:03.111Z,16.57
2023-04-16T11:12:29.936Z,16.14
2023-04-16T11:15:31.319Z,16.31
2023-04-16T11:17:58.125Z,16.34
2023-04-16T11:20:28.475Z,16.10
2023-04-16T11:22:56.936Z,16.33
2023-04-16T11:25:26.129Z,16.02
2023-04-16T11:27:53.490Z,15.95
2023-04-16T11:30:30.959Z,15.15
2023-04-16T11:32:57.744Z,15.37
2023-04-16T11:35:24.574Z,15.75
2023-04-16T11:37:57.006Z,16.21
2023-04-16T11:40:24.596Z,16.58
2023-04-16T11:42:51.198Z,17.19
2023-04-16T11:45:19.428Z,17.16
2023-04-16T11:47:57.250Z,17.07
2023-04-16T11:50:26.396Z,17.22
2023-04-16T11:52:57.111Z,17.28
2023-04-16T11:55:24.304Z,17.34
2023-04-16T11:57:52.317Z,17.46
2023-04-16T12:00:23.986Z,16.98
2023-04-16T12:02:54.029Z,16.91
2023-04-16T12:05:32.469Z,16.35
2023-04-16T12:08:01.568Z,16.15
2023-04-16T12:10:29.601Z,16.43
2023-04-16T12:13:15.159Z,16.53
2023-04-16T12:15:51.370Z,15.97
2023-04-16T12:18:21.392Z,15.80
2023-04-16T12:20:48.079Z,15.94
2023-04-16T12:23:29.718Z,15.05
2023-04-16T12:26:02.295Z,14.52
2023-04-16T12:28:34.977Z,14.22
2023-04-16T12:31:02.509Z,14.20
2023-04-16T12:33:29.290Z,14.80
2023-04-16T12:35:56.069Z,14.49
2023-04-16T12:38:24.467Z,13.41
2023-04-16T12:40:51.922Z,12.80
2023-04-16T12:43:19.783Z,13.28
2023-04-16T12:45:46.602Z,13.45
2023-04-16T12:48:13.263Z,13.41
2023-04-16T12:50:40.187Z,13.42
2023-04-16T12:53:07.015Z,14.21
2023-04-16T12:55:33.742Z,14.62
2023-04-16T12:58:01.143Z,15.13
2023-04-16T13:00:27.894Z,15.24
2023-04-16T13:02:54.621Z,15.95
2023-04-16T13:05:21.446Z,16.73
2023-04-16T13:07:48.143Z,16.82
2023-04-16T13:10:14.972Z,17.01
2023-04-16T13:12:41.548Z,16.91
2023-04-16T13:15:09.189Z,17.76
2023-04-16T13:17:35.818Z,18.12
2023-04-16T13:20:02.489Z,17.41
2023-04-16T13:22:29.182Z,18.12
2023-04-16T13:24:55.814Z,18.34
2023-04-16T13:27:22.486Z,18.49
2023-04-16T13:29:49.131Z,19.06
2023-04-16T13:32:15.763Z,18.81
2023-04-16T13:34:42.849Z,18.93
2023-04-16T13:37:09.567Z,18.19
2023-04-16T13:39:36.648Z,18.95
2023-04-16T13:42:03.341Z,18.43
2023-04-16T13:44:29.965Z,18.75
2023-04-16T13:46:56.737Z,17.91
2023-04-16T13:49:23.481Z,17.94
2023-04-16T13:51:50.246Z,17.69
2023-04-16T13:54:20.372Z,17.35
2023-04-16T13:56:47.127Z,16.80
2023-04-16T13:59:15.657Z,17.04
2023-04-16T14:01:42.508Z,16.29
2023-04-16T14:04:09.468Z,17.06
2023-04-16T14:06:36.095Z,16.07
2023-04-16T14:09:02.799Z,15.57
2023-04-16T14:11:29.419Z,15.32
2023-04-16T14:13:56.143Z,15.53
2023-04-16T14:16:22.993Z,15.63
2023-04-16T14:18:49.696Z,15.14
2023-04-16T14:21:16.371Z,15.05
2023-04-16T14:23:43.076Z,14.61
2023-04-16T14:26:09.767Z,14.77
2023-04-16T14:28:36.466Z,14.60
2023-04-16T14:31:03.075Z,14.40
2023-04-16T14:33:29.806Z,14.42
2023-04-16T14:35:56.633Z,14.37
2023-04-16T14:38:23.301Z,14.46
2023-04-16T14:40:49.960Z,14.98
2023-04-16T14:43:16.621Z,14.85
2023-04-16T14:45:43.417Z,14.56
2023-04-16T14:48:10.381Z,14.73
2023-04-16T14:50:38.007Z,14.88
2023-04-16T14:53:05.609Z,15.35
2023-04-16T14:55:32.714Z,15.38
2023-04-16T14:57:59.935Z,15.66
2023-04-16T15:00:27.532Z,15.08
2023-04-16T15:02:55.313Z,14.67
2023-04-16T15:05:22.324Z,14.89
2023-04-16T15:07:49.201Z,15.23
2023-04-16T15:10:15.832Z,15.06
2023-04-16T15:12:42.423Z,15.33
2023-04-16T15:15:10.056Z,15.92
2023-04-16T15:17:36.786Z,15.49
2023-04-16T15:20:08.124Z,15.99
2023-04-16T15:22:34.945Z,16.10
2023-04-16T15:25:01.706Z,15.37
2023-04-16T15:27:28.364Z,16.47
2023-04-16T15:29:55.112Z,16.70
2023-04-16T15:32:21.796Z,17.20
2023-04-16T15:34:48.501Z,17.69
2023-04-16T15:37:15.477Z,18.02
2023-04-16T15:39:42.309Z,17.88
2023-04-16T15:42:09.205Z,18.40
2023-04-16T15:44:36.301Z,18.43
2023-04-16T15:47:03.079Z,17.78
2023-04-16T15:49:29.720Z,18.21
2023-04-16T15:51:56.415Z,18.29
2023-04-16T15:54:23.616Z,19.09
2023-04-16T15:56:50.900Z,18.91
2023-04-16T15:59:17.745Z,18.61
2023-04-16T16:01:44.416Z,18.39
2023-04-16T16:04:11.914Z,18.02
2023-04-16T16:06:38.596Z,18.41
2023-04-16T16:09:05.440Z,18.40
2023-04-16T16:11:32.626Z,18.78
2023-04-16T16:14:01.479Z,18.67
2023-04-16T16:16:28.677Z,18.60
2023-04-16T16:18:55.900Z,18.76
2023-04-16T16:21:22.698Z,19.23
2023-04-16T16:23:49.598Z,19.01
2023-04-16T16:26:16.218Z,19.18
2023-04-16T16:28:44.622Z,19.34
2023-04-16T16:31:12.310Z,20.21
2023-04-16T16:33:40.468Z,20.41
2023-04-16T16:36:10.572Z,19.32
2023-04-16T16:38:37.863Z,19.92
2023-04-16T16:41:04.524Z,19.55
2023-04-16T16:43:31.489Z,19.89
2023-04-16T16:45:58.226Z,19.50
2023-04-16T16:48:24.894Z,19.75
2023-04-16T16:50:51.464Z,19.76
2023-04-16T16:53:18.084Z,20.64
2023-04-16T16:55:44.678Z,20.11
2023-04-16T16:58:11.350Z,19.76
2023-04-16T17:00:38.161Z,20.11
2023-04-16T17:03:05.053Z,20.04
2023-04-16T17:05:31.848Z,20.19
2023-04-16T17:07:58.600Z,20.45
2023-04-16T17:10:26.186Z,20.15
2023-04-16T17:12:52.917Z,20.76
2023-04-16T17:15:21.725Z,21.16
2023-04-16T17:17:49.046Z,20.52
2023-04-16T17:20:16.020Z,20.91
2023-04-16T17:22:42.828Z,21.00
2023-04-16T17:25:10.139Z,21.21
2023-04-16T17:27:36.769Z,21.00
2023-04-16T17:30:05.501Z,20.75
2023-04-16T17:32:33.020Z,21.38
2023-04-16T17:35:01.148Z,21.90
2023-04-16T17:37:27.929Z,21.49
2023-04-16T17:39:54.626Z,21.21
2023-04-16T17:42:21.672Z,21.59
2023-04-16T17:44:48.479Z,20.92
2023-04-16T17:47:15.098Z,21.31
2023-04-16T17:49:41.749Z,21.47
2023-04-16T17:52:08.408Z,21.03
2023-04-16T17:54:35.238Z,20.85
2023-04-16T17:57:02.158Z,21.38
2023-04-16T17:59:29.029Z,21.60
2023-04-16T18:01:56.679Z,22.06
2023-04-16T18:04:23.626Z,22.31
2023-04-16T18:06:50.459Z,22.18
2023-04-16T18:09:17.885Z,21.76
2023-04-16T18:11:44.470Z,21.95
2023-04-16T18:14:13.832Z,22.60
2023-04-16T18:16:41.779Z,22.30
2023-04-16T18:19:08.549Z,22.75
2023-04-16T18:21:35.720Z,23.27
2023-04-16T18:24:03.511Z,23.28
2023-04-16T18:26:30.330Z,23.84
2023-04-16T18:28:57.780Z,24.95
2023-04-16T18:31:24.489Z,24.76
2023-04-16T18:33:56.555Z,24.40
2023-04-16T18:36:24.851Z,25.91
2023-04-16T18:39:00.822Z,27.20
2023-04-16T18:41:28.938Z,27.54
2023-04-16T18:43:55.597Z,26.92
2023-04-16T18:46:22.308Z,27.52
2023-04-16T18:48:48.987Z,27.62
2023-04-16T18:51:16.513Z,27.28
2023-04-16T18:53:44.448Z,28.42
2023-04-16T18:56:11.677Z,28.31
2023-04-16T18:58:38.398Z,28.55
2023-04-16T19:01:07.774Z,28.82
2023-04-16T19:03:34.765Z,27.96
2023-04-16T19:06:01.948Z,28.21
2023-04-16T19:08:28.557Z,27.49
2023-04-16T19:10:55.282Z,28.22
2023-04-16T19:13:21.896Z,28.73
2023-04-16T19:15:48.527Z,28.13
2023-04-16T19:18:15.181Z,29.08
2023-04-16T19:20:41.772Z,28.48
2023-04-16T19:23:09.238Z,27.85
2023-04-16T19:25:39.323Z,28.82
2023-04-16T19:28:06.004Z,28.50
2023-04-16T19:30:32.735Z,29.39
2023-04-16T19:32:59.366Z,28.50
2023-04-16T19:35:26.426Z,28.83
2023-04-16T19:37:53.054Z,28.29
2023-04-16T19:40:19.690Z,28.53
2023-04-16T19:42:46.377Z,27.85
2023-04-16T19:45:12.978Z,28.42
2023-04-16T19:47:39.615Z,28.59
2023-04-16T19:50:06.885Z,29.79
2023-04-16T19:52:38.844Z,30.64
2023-04-16T19:55:07.023Z,30.17
2023-04-16T19:57:33.687Z,29.60
2023-04-16T20:00:00.411Z,30.16
2023-04-16T20:02:27.389Z,29.89
2023-04-16T20:04:54.160Z,30.66
2023-04-16T20:07:20.798Z,31.12
2023-04-16T20:09:47.415Z,30.76
2023-04-16T20:12:14.431Z,31.44
2023-04-16T20:14:41.931Z,31.64
2023-04-16T20:17:10.099Z,31.71
2023-04-16T20:19:40.533Z,32.00
2023-04-16T20:22:07.355Z,32.77
2023-04-16T20:24:34.359Z,31.52
2023-04-16T20:27:01.773Z,31.57
2023-04-16T20:29:28.418Z,32.17
2023-04-16T20:31:55.069Z,31.73
2023-04-16T20:34:21.714Z,32.43
2023-04-16T20:36:48.417Z,33.31
2023-04-16T20:39:20.430Z,34.17
2023-04-16T20:41:57.122Z,33.92
2023-04-16T20:44:26.196Z,33.68
2023-04-16T20:46:55.542Z,34.01
2023-04-16T20:49:22.204Z,34.41
2023-04-16T20:51:48.845Z,35.19
2023-04-16T20:54:15.684Z,34.17
2023-04-16T20:56:43.222Z,34.22
2023-04-16T20:59:10.354Z,34.47
2023-04-16T21:01:37.278Z,34.97
2023-04-16T21:04:04.270Z,36.06
2023-04-16T21:06:32.921Z,35.20
2023-04-16T21:08:59.580Z,36.92
2023-04-16T21:11:26.225Z,36.74
2023-04-16T21:13:52.845Z,37.33
2023-04-16T21:16:19.504Z,37.93
2023-04-16T21:18:46.174Z,38.00
2023-04-16T21:21:12.769Z,37.12
2023-04-16T21:23:39.348Z,37.52
2023-04-16T21:26:06.102Z,37.60
2023-04-16T21:28:32.818Z,37.43
2023-04-16T21:30:59.635Z,34.50
2023-04-16T21:33:26.309Z,35.03
2023-04-16T21:35:53.737Z,33.42
2023-04-16T21:38:21.545Z,35.78
2023-04-16T21:40:58.477Z,33.92
2023-04-16T21:43:26.825Z,32.80
2023-04-16T21:45:53.902Z,31.90
2023-04-16T21:48:21.709Z,32.57
2023-04-16T21:50:54.934Z,32.10
2023-04-16T21:53:21.732Z,31.01
2023-04-16T21:55:48.354Z,30.92
2023-04-16T21:58:14.951Z,31.69
2023-04-16T22:00:41.611Z,33.08
2023-04-16T22:03:08.936Z,32.48
2023-04-16T22:05:35.839Z,33.59
2023-04-16T22:08:08.191Z,33.81
2023-04-16T22:10:47.966Z,34.09
2023-04-16T22:13:14.648Z,34.10
2023-04-16T22:15:41.402Z,34.53
2023-04-16T22:18:09.632Z,36.17
2023-04-16T22:20:38.894Z,35.23
2023-04-16T22:23:06.597Z,35.11
2023-04-16T22:25:33.688Z,35.08
2023-04-16T22:28:01.541Z,36.40
2023-04-16T22:30:28.305Z,35.62
2023-04-16T22:32:55.113Z,36.96
2023-04-16T22:35:21.986Z,37.39
2023-04-16T22:37:48.668Z,37.29
2023-04-16T22:40:15.955Z,38.87
2023-04-16T22:42:42.696Z,37.25
2023-04-16T22:45:09.692Z,37.99
2023-04-16T22:47:36.438Z,37.69
2023-04-16T22:50:03.313Z,39.95
2023-04-16T22:52:29.973Z,39.41
2023-04-16T22:54:56.592Z,39.82
2023-04-16T22:57:25.593Z,39.91
2023-04-16T22:59:53.168Z,38.68
2023-04-16T23:02:21.431Z,39.62
2023-04-16T23:04:48.185Z,39.46
2023-04-16T23:07:16.192Z,40.63
2023-04-16T23:09:42.794Z,39.19
2023-04-16T23:12:09.405Z,41.58
2023-04-16T23:14:36.992Z,40.61
2023-04-16T23:17:03.862Z,40.16
2023-04-16T23:19:31.707Z,39.38
2023-04-16T23:21:58.701Z,38.72
2023-04-16T23:24:25.393Z,39.27
2023-04-16T23:26:52.695Z,38.92
2023-04-16T23:29:20.532Z,39.81
2023-04-16T23:31:47.388Z,38.80
2023-04-16T23:34:14.040Z,38.30
2023-04-16T23:36:40.877Z,39.16
2023-04-16T23:39:07.552Z,38.45
2023-04-16T23:41:34.668Z,40.32
2023-04-16T23:44:01.378Z,42.40
2023-04-16T23:46:28.045Z,42.49
2023-04-16T23:48:55.407Z,41.67
2023-04-16T23:51:22.312Z,41.12
2023-04-16T23:53:49.060Z,41.68
2023-04-16T23:56:16.284Z,42.88
2023-04-16T23:58:42.865Z,41.95
